sensor_id;sensor_type;location;lat;lon;timestamp;P1;durP1;ratioP1;P2;durP2;ratioP2
2756;SDS011;1386;50.862;6.494;2023-06-24T00:02:12;9.17;;;6.93;;
2756;SDS011;1386;50.862;6.494;2023-06-24T00:04:42;8.10;;;7.30;;
2756;SDS011;1386;50.862;6.494;2023-06-24T00:07:11;7.13;;;6.20;;
2756;SDS011;1386;50.862;6.494;2023-06-24T00:09:39;7.50;;;6.80;;
2756;SDS011;1386;50.862;6.494;2023-06-24T00:12:07;7.90;;;7.10;;
2756;SDS011;1386;50.862;6.494;2023-06-24T00:14:34;7.90;;;7.20;;
2756;SDS011;1386;50.862;6.494;2023-06-24T00:17:02;8.33;;;7.47;;
2756;SDS011;1386;50.862;6.494;2023-06-24T00:19:38;7.30;;;6.50;;
2756;SDS011;1386;50.862;6.494;2023-06-24T00:22:05;7.10;;;6.50;;
2756;SDS011;1386;50.862;6.494;2023-06-24T00:24:32;7.73;;;7.03;;
2756;SDS011;1386;50.862;6.494;2023-06-24T00:27:00;7.90;;;7.00;;
2756;SDS011;1386;50.862;6.494;2023-06-24T00:29:27;7.17;;;6.00;;
2756;SDS011;1386;50.862;6.494;2023-06-24T00:31:54;7.80;;;6.80;;
2756;SDS011;1386;50.862;6.494;2023-06-24T00:34:21;12.57;;;6.63;;
2756;SDS011;1386;50.862;6.494;2023-06-24T00:36:48;8.00;;;7.20;;
2756;SDS011;1386;50.862;6.494;2023-06-24T00:39:16;7.10;;;6.40;;
2756;SDS011;1386;50.862;6.494;2023-06-24T00:41:44;7.27;;;6.20;;
2756;SDS011;1386;50.862;6.494;2023-06-24T00:44:13;12.13;;;6.47;;
2756;SDS011;1386;50.862;6.494;2023-06-24T00:46:40;7.90;;;7.10;;
2756;SDS011;1386;50.862;6.494;2023-06-24T00:49:07;8.17;;;6.60;;
2756;SDS011;1386;50.862;6.494;2023-06-24T00:51:33;9.73;;;6.90;;
2756;SDS011;1386;50.862;6.494;2023-06-24T00:54:05;6.93;;;6.27;;
2756;SDS011;1386;50.862;6.494;2023-06-24T00:56:33;7.03;;;6.30;;
2756;SDS011;1386;50.862;6.494;2023-06-24T00:59:03;6.70;;;6.00;;
2756;SDS011;1386;50.862;6.494;2023-06-24T01:01:34;8.13;;;6.70;;
2756;SDS011;1386;50.862;6.494;2023-06-24T01:04:01;8.17;;;6.23;;
2756;SDS011;1386;50.862;6.494;2023-06-24T01:06:29;7.33;;;6.63;;
2756;SDS011;1386;50.862;6.494;2023-06-24T01:08:59;7.57;;;6.87;;
2756;SDS011;1386;50.862;6.494;2023-06-24T01:11:27;11.80;;;7.30;;
2756;SDS011;1386;50.862;6.494;2023-06-24T01:13:55;11.20;;;7.37;;
2756;SDS011;1386;50.862;6.494;2023-06-24T01:16:25;8.00;;;6.83;;
2756;SDS011;1386;50.862;6.494;2023-06-24T01:19:01;8.60;;;7.40;;
2756;SDS011;1386;50.862;6.494;2023-06-24T01:21:40;8.10;;;7.40;;
2756;SDS011;1386;50.862;6.494;2023-06-24T01:24:31;8.70;;;6.93;;
2756;SDS011;1386;50.862;6.494;2023-06-24T01:27:24;9.87;;;7.60;;
2756;SDS011;1386;50.862;6.494;2023-06-24T01:33:10;9.00;;;7.70;;
2756;SDS011;1386;50.862;6.494;2023-06-24T01:35:41;8.60;;;7.50;;
2756;SDS011;1386;50.862;6.494;2023-06-24T01:38:10;7.97;;;7.07;;
2756;SDS011;1386;50.862;6.494;2023-06-24T01:40:43;7.73;;;6.93;;
2756;SDS011;1386;50.862;6.494;2023-06-24T01:43:11;8.83;;;7.13;;
2756;SDS011;1386;50.862;6.494;2023-06-24T01:45:40;8.00;;;7.30;;
2756;SDS011;1386;50.862;6.494;2023-06-24T01:48:11;10.70;;;8.67;;
2756;SDS011;1386;50.862;6.494;2023-06-24T01:50:42;10.70;;;7.60;;
2756;SDS011;1386;50.862;6.494;2023-06-24T01:53:13;9.10;;;7.57;;
2756;SDS011;1386;50.862;6.494;2023-06-24T01:55:42;12.90;;;7.93;;
2756;SDS011;1386;50.862;6.494;2023-06-24T01:58:12;12.50;;;8.13;;
2756;SDS011;1386;50.862;6.494;2023-06-24T02:00:41;10.77;;;7.77;;
2756;SDS011;1386;50.862;6.494;2023-06-24T02:03:09;8.00;;;7.13;;
2756;SDS011;1386;50.862;6.494;2023-06-24T02:05:37;9.50;;;7.80;;
2756;SDS011;1386;50.862;6.494;2023-06-24T02:08:06;11.53;;;7.70;;
2756;SDS011;1386;50.862;6.494;2023-06-24T02:10:36;8.53;;;7.53;;
2756;SDS011;1386;50.862;6.494;2023-06-24T02:13:05;8.60;;;7.30;;
2756;SDS011;1386;50.862;6.494;2023-06-24T02:15:33;10.07;;;8.03;;
2756;SDS011;1386;50.862;6.494;2023-06-24T02:18:03;10.03;;;7.50;;
2756;SDS011;1386;50.862;6.494;2023-06-24T02:20:32;12.63;;;7.37;;
2756;SDS011;1386;50.862;6.494;2023-06-24T02:23:00;9.07;;;8.20;;
2756;SDS011;1386;50.862;6.494;2023-06-24T02:25:30;9.67;;;8.10;;
2756;SDS011;1386;50.862;6.494;2023-06-24T02:27:58;8.43;;;7.60;;
2756;SDS011;1386;50.862;6.494;2023-06-24T02:30:27;9.23;;;7.13;;
2756;SDS011;1386;50.862;6.494;2023-06-24T02:32:55;14.77;;;7.83;;
2756;SDS011;1386;50.862;6.494;2023-06-24T02:35:21;9.90;;;7.87;;
2756;SDS011;1386;50.862;6.494;2023-06-24T02:37:50;9.20;;;7.87;;
2756;SDS011;1386;50.862;6.494;2023-06-24T02:40:17;10.77;;;8.10;;
2756;SDS011;1386;50.862;6.494;2023-06-24T02:42:47;9.47;;;7.23;;
2756;SDS011;1386;50.862;6.494;2023-06-24T02:45:14;7.93;;;6.93;;
2756;SDS011;1386;50.862;6.494;2023-06-24T02:47:41;9.80;;;7.30;;
2756;SDS011;1386;50.862;6.494;2023-06-24T02:50:13;10.00;;;6.97;;
2756;SDS011;1386;50.862;6.494;2023-06-24T02:52:40;10.13;;;8.50;;
2756;SDS011;1386;50.862;6.494;2023-06-24T02:55:11;11.10;;;8.30;;
2756;SDS011;1386;50.862;6.494;2023-06-24T02:57:38;9.80;;;7.77;;
2756;SDS011;1386;50.862;6.494;2023-06-24T03:00:07;7.70;;;6.77;;
2756;SDS011;1386;50.862;6.494;2023-06-24T03:02:37;8.73;;;7.50;;
2756;SDS011;1386;50.862;6.494;2023-06-24T03:05:11;8.83;;;7.93;;
2756;SDS011;1386;50.862;6.494;2023-06-24T03:07:38;8.07;;;7.27;;
2756;SDS011;1386;50.862;6.494;2023-06-24T03:10:11;9.13;;;6.73;;
2756;SDS011;1386;50.862;6.494;2023-06-24T03:12:42;8.23;;;7.50;;
2756;SDS011;1386;50.862;6.494;2023-06-24T03:15:09;7.77;;;6.70;;
2756;SDS011;1386;50.862;6.494;2023-06-24T03:17:36;10.50;;;6.87;;
2756;SDS011;1386;50.862;6.494;2023-06-24T03:20:03;8.37;;;7.00;;
2756;SDS011;1386;50.862;6.494;2023-06-24T03:22:32;10.37;;;7.10;;
2756;SDS011;1386;50.862;6.494;2023-06-24T03:25:02;12.07;;;6.77;;
2756;SDS011;1386;50.862;6.494;2023-06-24T03:27:30;9.53;;;7.53;;
2756;SDS011;1386;50.862;6.494;2023-06-24T03:29:59;9.20;;;7.00;;
2756;SDS011;1386;50.862;6.494;2023-06-24T03:32:25;8.10;;;6.53;;
2756;SDS011;1386;50.862;6.494;2023-06-24T03:34:55;8.80;;;6.30;;
2756;SDS011;1386;50.862;6.494;2023-06-24T03:37:22;7.93;;;6.70;;
2756;SDS011;1386;50.862;6.494;2023-06-24T03:39:55;10.33;;;7.40;;
2756;SDS011;1386;50.862;6.494;2023-06-24T03:42:22;10.80;;;6.90;;
2756;SDS011;1386;50.862;6.494;2023-06-24T03:44:50;8.20;;;5.70;;
2756;SDS011;1386;50.862;6.494;2023-06-24T03:47:17;9.70;;;7.30;;
2756;SDS011;1386;50.862;6.494;2023-06-24T03:49:44;8.77;;;6.37;;
2756;SDS011;1386;50.862;6.494;2023-06-24T03:52:10;6.90;;;5.90;;
2756;SDS011;1386;50.862;6.494;2023-06-24T03:54:37;8.67;;;7.63;;
2756;SDS011;1386;50.862;6.494;2023-06-24T03:57:05;7.93;;;6.50;;
2756;SDS011;1386;50.862;6.494;2023-06-24T03:59:38;7.60;;;6.27;;
2756;SDS011;1386;50.862;6.494;2023-06-24T04:02:06;8.90;;;6.73;;
2756;SDS011;1386;50.862;6.494;2023-06-24T04:04:34;7.10;;;6.40;;
2756;SDS011;1386;50.862;6.494;2023-06-24T04:07:00;9.83;;;6.33;;
2756;SDS011;1386;50.862;6.494;2023-06-24T04:09:28;8.33;;;6.30;;
2756;SDS011;1386;50.862;6.494;2023-06-24T04:11:56;8.30;;;7.40;;
2756;SDS011;1386;50.862;6.494;2023-06-24T04:14:22;9.33;;;6.93;;
2756;SDS011;1386;50.862;6.494;2023-06-24T04:16:52;10.50;;;6.97;;
2756;SDS011;1386;50.862;6.494;2023-06-24T04:19:20;8.93;;;6.80;;
2756;SDS011;1386;50.862;6.494;2023-06-24T04:21:47;9.07;;;6.93;;
2756;SDS011;1386;50.862;6.494;2023-06-24T04:24:14;10.80;;;6.93;;
2756;SDS011;1386;50.862;6.494;2023-06-24T04:26:40;9.43;;;7.10;;
2756;SDS011;1386;50.862;6.494;2023-06-24T04:29:07;7.93;;;6.70;;
2756;SDS011;1386;50.862;6.494;2023-06-24T04:31:34;7.50;;;6.70;;
2756;SDS011;1386;50.862;6.494;2023-06-24T04:34:03;10.30;;;7.13;;
2756;SDS011;1386;50.862;6.494;2023-06-24T04:36:31;8.53;;;6.63;;
2756;SDS011;1386;50.862;6.494;2023-06-24T04:38:58;9.67;;;6.43;;
2756;SDS011;1386;50.862;6.494;2023-06-24T04:41:25;10.43;;;7.87;;
2756;SDS011;1386;50.862;6.494;2023-06-24T04:43:52;9.70;;;6.60;;
2756;SDS011;1386;50.862;6.494;2023-06-24T04:46:21;11.10;;;7.17;;
2756;SDS011;1386;50.862;6.494;2023-06-24T04:48:49;11.47;;;7.00;;
2756;SDS011;1386;50.862;6.494;2023-06-24T04:51:16;7.70;;;5.77;;
2756;SDS011;1386;50.862;6.494;2023-06-24T04:53:47;8.83;;;6.27;;
2756;SDS011;1386;50.862;6.494;2023-06-24T04:56:13;8.60;;;6.60;;
2756;SDS011;1386;50.862;6.494;2023-06-24T04:58:40;9.20;;;7.30;;
2756;SDS011;1386;50.862;6.494;2023-06-24T05:01:10;15.80;;;7.90;;
2756;SDS011;1386;50.862;6.494;2023-06-24T05:03:37;10.00;;;7.17;;
2756;SDS011;1386;50.862;6.494;2023-06-24T05:06:03;12.73;;;7.80;;
2756;SDS011;1386;50.862;6.494;2023-06-24T05:08:30;14.53;;;7.23;;
2756;SDS011;1386;50.862;6.494;2023-06-24T05:10:58;11.03;;;7.80;;
2756;SDS011;1386;50.862;6.494;2023-06-24T05:13:26;10.10;;;7.83;;
2756;SDS011;1386;50.862;6.494;2023-06-24T05:15:53;11.10;;;7.80;;
2756;SDS011;1386;50.862;6.494;2023-06-24T05:18:20;12.77;;;7.83;;
2756;SDS011;1386;50.862;6.494;2023-06-24T05:20:47;11.87;;;7.90;;
2756;SDS011;1386;50.862;6.494;2023-06-24T05:23:14;14.13;;;8.10;;
2756;SDS011;1386;50.862;6.494;2023-06-24T05:25:41;10.57;;;8.23;;
2756;SDS011;1386;50.862;6.494;2023-06-24T05:28:09;11.80;;;8.37;;
2756;SDS011;1386;50.862;6.494;2023-06-24T05:30:36;10.60;;;8.00;;
2756;SDS011;1386;50.862;6.494;2023-06-24T05:33:02;10.60;;;7.60;;
2756;SDS011;1386;50.862;6.494;2023-06-24T05:35:29;11.03;;;8.30;;
2756;SDS011;1386;50.862;6.494;2023-06-24T05:37:59;11.40;;;8.40;;
2756;SDS011;1386;50.862;6.494;2023-06-24T05:40:26;12.70;;;7.73;;
2756;SDS011;1386;50.862;6.494;2023-06-24T05:42:53;13.20;;;8.97;;
2756;SDS011;1386;50.862;6.494;2023-06-24T05:45:21;10.57;;;7.97;;
2756;SDS011;1386;50.862;6.494;2023-06-24T05:47:50;10.20;;;8.17;;
2756;SDS011;1386;50.862;6.494;2023-06-24T05:50:17;12.97;;;8.60;;
2756;SDS011;1386;50.862;6.494;2023-06-24T05:52:44;11.30;;;7.23;;
2756;SDS011;1386;50.862;6.494;2023-06-24T05:55:14;9.17;;;6.70;;
2756;SDS011;1386;50.862;6.494;2023-06-24T05:57:41;11.20;;;8.70;;
2756;SDS011;1386;50.862;6.494;2023-06-24T06:00:08;15.07;;;8.93;;
2756;SDS011;1386;50.862;6.494;2023-06-24T06:02:36;11.60;;;8.10;;
2756;SDS011;1386;50.862;6.494;2023-06-24T06:05:03;14.50;;;9.03;;
2756;SDS011;1386;50.862;6.494;2023-06-24T06:07:32;11.83;;;8.70;;
2756;SDS011;1386;50.862;6.494;2023-06-24T06:09:59;11.87;;;7.20;;
2756;SDS011;1386;50.862;6.494;2023-06-24T06:12:26;9.70;;;8.30;;
2756;SDS011;1386;50.862;6.494;2023-06-24T06:14:53;8.63;;;7.70;;
2756;SDS011;1386;50.862;6.494;2023-06-24T06:17:20;11.57;;;8.73;;
2756;SDS011;1386;50.862;6.494;2023-06-24T06:19:49;11.37;;;7.53;;
2756;SDS011;1386;50.862;6.494;2023-06-24T06:22:15;9.63;;;7.40;;
2756;SDS011;1386;50.862;6.494;2023-06-24T07:06:02;9.30;;;5.80;;
2756;SDS011;1386;50.862;6.494;2023-06-24T07:08:30;9.03;;;6.10;;
2756;SDS011;1386;50.862;6.494;2023-06-24T07:10:56;10.83;;;5.77;;
2756;SDS011;1386;50.862;6.494;2023-06-24T07:13:23;10.80;;;6.37;;
2756;SDS011;1386;50.862;6.494;2023-06-24T07:15:50;7.53;;;5.27;;
2756;SDS011;1386;50.862;6.494;2023-06-24T07:18:23;7.77;;;5.93;;
2756;SDS011;1386;50.862;6.494;2023-06-24T07:20:55;9.40;;;5.30;;
2756;SDS011;1386;50.862;6.494;2023-06-24T07:23:27;6.30;;;4.47;;
2756;SDS011;1386;50.862;6.494;2023-06-24T07:25:58;7.57;;;4.77;;
2756;SDS011;1386;50.862;6.494;2023-06-24T07:28:25;7.53;;;5.50;;
2756;SDS011;1386;50.862;6.494;2023-06-24T07:30:52;11.97;;;5.70;;
2756;SDS011;1386;50.862;6.494;2023-06-24T07:33:19;8.87;;;5.60;;
2756;SDS011;1386;50.862;6.494;2023-06-24T07:35:50;9.57;;;5.33;;
2756;SDS011;1386;50.862;6.494;2023-06-24T07:38:18;8.83;;;5.53;;
2756;SDS011;1386;50.862;6.494;2023-06-24T07:40:47;10.07;;;6.70;;
2756;SDS011;1386;50.862;6.494;2023-06-24T07:43:14;12.93;;;5.53;;
2756;SDS011;1386;50.862;6.494;2023-06-24T07:45:41;12.97;;;6.10;;
2756;SDS011;1386;50.862;6.494;2023-06-24T07:48:07;13.63;;;5.93;;
2756;SDS011;1386;50.862;6.494;2023-06-24T07:50:37;12.17;;;5.80;;
2756;SDS011;1386;50.862;6.494;2023-06-24T07:53:04;14.47;;;5.43;;
2756;SDS011;1386;50.862;6.494;2023-06-24T07:55:31;14.90;;;6.57;;
2756;SDS011;1386;50.862;6.494;2023-06-24T07:57:59;12.70;;;6.17;;
2756;SDS011;1386;50.862;6.494;2023-06-24T08:00:30;9.40;;;5.97;;
2756;SDS011;1386;50.862;6.494;2023-06-24T08:02:57;10.80;;;5.80;;
2756;SDS011;1386;50.862;6.494;2023-06-24T08:05:41;10.87;;;6.10;;
2756;SDS011;1386;50.862;6.494;2023-06-24T08:08:08;7.90;;;5.33;;
2756;SDS011;1386;50.862;6.494;2023-06-24T08:10:35;6.73;;;5.10;;
2756;SDS011;1386;50.862;6.494;2023-06-24T08:13:03;11.80;;;5.60;;
2756;SDS011;1386;50.862;6.494;2023-06-24T08:15:30;9.37;;;5.40;;
2756;SDS011;1386;50.862;6.494;2023-06-24T08:18:05;9.60;;;6.03;;
2756;SDS011;1386;50.862;6.494;2023-06-24T08:20:34;12.27;;;5.30;;
2756;SDS011;1386;50.862;6.494;2023-06-24T08:23:01;8.13;;;6.10;;
2756;SDS011;1386;50.862;6.494;2023-06-24T08:25:28;12.20;;;5.70;;
2756;SDS011;1386;50.862;6.494;2023-06-24T08:27:55;7.37;;;5.50;;
2756;SDS011;1386;50.862;6.494;2023-06-24T08:30:24;7.70;;;5.33;;
2756;SDS011;1386;50.862;6.494;2023-06-24T08:32:51;10.00;;;6.73;;
2756;SDS011;1386;50.862;6.494;2023-06-24T08:35:18;10.53;;;6.43;;
2756;SDS011;1386;50.862;6.494;2023-06-24T08:37:44;13.53;;;5.67;;
2756;SDS011;1386;50.862;6.494;2023-06-24T08:40:11;10.50;;;4.70;;
2756;SDS011;1386;50.862;6.494;2023-06-24T08:42:38;8.60;;;5.17;;
2756;SDS011;1386;50.862;6.494;2023-06-24T08:45:05;10.27;;;6.10;;
2756;SDS011;1386;50.862;6.494;2023-06-24T08:47:35;6.60;;;4.57;;
2756;SDS011;1386;50.862;6.494;2023-06-24T08:50:11;6.50;;;5.00;;
2756;SDS011;1386;50.862;6.494;2023-06-24T08:52:38;7.57;;;5.63;;
2756;SDS011;1386;50.862;6.494;2023-06-24T08:55:09;8.70;;;5.37;;
2756;SDS011;1386;50.862;6.494;2023-06-24T08:57:42;9.67;;;5.93;;
2756;SDS011;1386;50.862;6.494;2023-06-24T09:00:09;7.00;;;4.67;;
2756;SDS011;1386;50.862;6.494;2023-06-24T09:02:38;9.70;;;5.10;;
2756;SDS011;1386;50.862;6.494;2023-06-24T09:05:05;7.80;;;6.00;;
2756;SDS011;1386;50.862;6.494;2023-06-24T09:07:32;6.50;;;4.83;;
2756;SDS011;1386;50.862;6.494;2023-06-24T09:09:59;10.33;;;6.00;;
2756;SDS011;1386;50.862;6.494;2023-06-24T09:12:26;8.10;;;5.87;;
2756;SDS011;1386;50.862;6.494;2023-06-24T09:14:54;12.23;;;5.73;;
2756;SDS011;1386;50.862;6.494;2023-06-24T10:00:58;6.40;;;5.20;;
2756;SDS011;1386;50.862;6.494;2023-06-24T10:03:35;5.53;;;4.30;;
2756;SDS011;1386;50.862;6.494;2023-06-24T10:06:05;7.00;;;4.07;;
2756;SDS011;1386;50.862;6.494;2023-06-24T10:08:34;7.57;;;4.70;;
2756;SDS011;1386;50.862;6.494;2023-06-24T10:11:01;7.17;;;4.60;;
2756;SDS011;1386;50.862;6.494;2023-06-24T10:13:30;5.37;;;4.00;;
2756;SDS011;1386;50.862;6.494;2023-06-24T10:15:58;5.10;;;3.80;;
2756;SDS011;1386;50.862;6.494;2023-06-24T10:18:35;4.77;;;4.20;;
2756;SDS011;1386;50.862;6.494;2023-06-24T10:21:02;5.80;;;3.50;;
2756;SDS011;1386;50.862;6.494;2023-06-24T10:23:31;6.37;;;3.80;;
2756;SDS011;1386;50.862;6.494;2023-06-24T10:25:59;7.50;;;4.60;;
2756;SDS011;1386;50.862;6.494;2023-06-24T10:28:26;4.00;;;2.80;;
2756;SDS011;1386;50.862;6.494;2023-06-24T10:31:15;5.67;;;4.03;;
2756;SDS011;1386;50.862;6.494;2023-06-24T10:33:42;6.47;;;4.50;;
2756;SDS011;1386;50.862;6.494;2023-06-24T10:36:32;4.23;;;3.40;;
2756;SDS011;1386;50.862;6.494;2023-06-24T10:38:58;6.20;;;4.40;;
2756;SDS011;1386;50.862;6.494;2023-06-24T10:41:25;6.20;;;4.00;;
2756;SDS011;1386;50.862;6.494;2023-06-24T10:43:52;5.43;;;4.13;;
2756;SDS011;1386;50.862;6.494;2023-06-24T10:46:24;7.80;;;3.73;;
2756;SDS011;1386;50.862;6.494;2023-06-24T10:48:53;4.80;;;3.30;;
2756;SDS011;1386;50.862;6.494;2023-06-24T10:51:19;3.87;;;3.30;;
2756;SDS011;1386;50.862;6.494;2023-06-24T10:53:48;4.60;;;3.37;;
2756;SDS011;1386;50.862;6.494;2023-06-24T10:56:15;4.97;;;3.93;;
2756;SDS011;1386;50.862;6.494;2023-06-24T10:58:54;6.57;;;3.70;;
2756;SDS011;1386;50.862;6.494;2023-06-24T11:01:22;4.23;;;3.50;;
2756;SDS011;1386;50.862;6.494;2023-06-24T11:03:50;5.10;;;4.13;;
2756;SDS011;1386;50.862;6.494;2023-06-24T11:06:18;6.00;;;3.60;;
2756;SDS011;1386;50.862;6.494;2023-06-24T11:08:46;8.13;;;3.57;;
2756;SDS011;1386;50.862;6.494;2023-06-24T11:11:19;3.70;;;3.20;;
2756;SDS011;1386;50.862;6.494;2023-06-24T11:13:47;5.53;;;3.57;;
2756;SDS011;1386;50.862;6.494;2023-06-24T11:16:14;5.70;;;3.37;;
2756;SDS011;1386;50.862;6.494;2023-06-24T11:18:48;4.00;;;3.30;;
2756;SDS011;1386;50.862;6.494;2023-06-24T11:21:15;5.87;;;3.13;;
2756;SDS011;1386;50.862;6.494;2023-06-24T11:23:52;4.30;;;3.50;;
2756;SDS011;1386;50.862;6.494;2023-06-24T11:26:21;3.60;;;3.10;;
2756;SDS011;1386;50.862;6.494;2023-06-24T11:28:50;2.83;;;2.57;;
2756;SDS011;1386;50.862;6.494;2023-06-24T11:31:17;6.80;;;3.50;;
2756;SDS011;1386;50.862;6.494;2023-06-24T11:33:49;4.40;;;3.07;;
2756;SDS011;1386;50.862;6.494;2023-06-24T11:36:22;3.47;;;3.07;;
2756;SDS011;1386;50.862;6.494;2023-06-24T11:38:48;5.93;;;2.90;;
2756;SDS011;1386;50.862;6.494;2023-06-24T11:41:20;4.67;;;3.53;;
2756;SDS011;1386;50.862;6.494;2023-06-24T11:43:48;3.63;;;3.10;;
2756;SDS011;1386;50.862;6.494;2023-06-24T11:46:20;4.50;;;3.10;;
2756;SDS011;1386;50.862;6.494;2023-06-24T11:48:57;3.40;;;2.67;;
2756;SDS011;1386;50.862;6.494;2023-06-24T11:51:32;4.30;;;3.30;;
2756;SDS011;1386;50.862;6.494;2023-06-24T11:54:00;4.27;;;2.60;;
2756;SDS011;1386;50.862;6.494;2023-06-24T11:56:38;3.00;;;2.70;;
2756;SDS011;1386;50.862;6.494;2023-06-24T11:59:14;5.30;;;3.00;;
2756;SDS011;1386;50.862;6.494;2023-06-24T12:01:43;3.60;;;2.33;;
2756;SDS011;1386;50.862;6.494;2023-06-24T12:04:19;4.50;;;3.27;;
2756;SDS011;1386;50.862;6.494;2023-06-24T12:06:47;5.20;;;2.80;;
2756;SDS011;1386;50.862;6.494;2023-06-24T12:09:14;3.77;;;2.50;;
2756;SDS011;1386;50.862;6.494;2023-06-24T12:11:42;3.50;;;2.47;;
2756;SDS011;1386;50.862;6.494;2023-06-24T12:14:08;2.40;;;2.20;;
2756;SDS011;1386;50.862;6.494;2023-06-24T12:16:35;4.10;;;3.00;;
2756;SDS011;1386;50.862;6.494;2023-06-24T12:19:13;2.90;;;2.40;;
2756;SDS011;1386;50.862;6.494;2023-06-24T12:21:45;3.93;;;2.83;;
2756;SDS011;1386;50.862;6.494;2023-06-24T12:24:12;3.27;;;2.80;;
2756;SDS011;1386;50.862;6.494;2023-06-24T12:26:40;3.03;;;2.73;;
2756;SDS011;1386;50.862;6.494;2023-06-24T12:29:07;4.57;;;2.70;;
2756;SDS011;1386;50.862;6.494;2023-06-24T12:31:34;5.17;;;2.77;;
2756;SDS011;1386;50.862;6.494;2023-06-24T12:34:02;2.97;;;2.33;;
2756;SDS011;1386;50.862;6.494;2023-06-24T12:36:33;3.00;;;2.60;;
2756;SDS011;1386;50.862;6.494;2023-06-24T12:39:00;2.83;;;2.40;;
2756;SDS011;1386;50.862;6.494;2023-06-24T12:41:27;3.93;;;1.80;;
2756;SDS011;1386;50.862;6.494;2023-06-24T12:44:00;3.47;;;2.20;;
2756;SDS011;1386;50.862;6.494;2023-06-24T12:46:27;2.37;;;2.00;;
2756;SDS011;1386;50.862;6.494;2023-06-24T12:48:56;2.77;;;2.30;;
2756;SDS011;1386;50.862;6.494;2023-06-24T12:51:29;2.33;;;2.00;;
2756;SDS011;1386;50.862;6.494;2023-06-24T12:53:57;3.20;;;2.40;;
2756;SDS011;1386;50.862;6.494;2023-06-24T12:56:24;2.40;;;2.20;;
2756;SDS011;1386;50.862;6.494;2023-06-24T12:58:56;2.27;;;2.07;;
2756;SDS011;1386;50.862;6.494;2023-06-24T13:01:23;2.90;;;2.53;;
2756;SDS011;1386;50.862;6.494;2023-06-24T13:03:50;2.77;;;2.00;;
2756;SDS011;1386;50.862;6.494;2023-06-24T13:06:24;2.93;;;2.30;;
2756;SDS011;1386;50.862;6.494;2023-06-24T13:08:51;2.23;;;1.97;;
2756;SDS011;1386;50.862;6.494;2023-06-24T13:11:20;3.40;;;2.43;;
2756;SDS011;1386;50.862;6.494;2023-06-24T13:13:49;3.07;;;2.60;;
2756;SDS011;1386;50.862;6.494;2023-06-24T13:16:16;2.40;;;2.20;;
2756;SDS011;1386;50.862;6.494;2023-06-24T13:18:49;2.40;;;2.13;;
2756;SDS011;1386;50.862;6.494;2023-06-24T13:21:16;4.33;;;2.20;;
2756;SDS011;1386;50.862;6.494;2023-06-24T13:23:43;2.93;;;2.43;;
2756;SDS011;1386;50.862;6.494;2023-06-24T13:26:11;2.60;;;1.57;;
2756;SDS011;1386;50.862;6.494;2023-06-24T13:28:41;4.00;;;2.60;;
2756;SDS011;1386;50.862;6.494;2023-06-24T13:31:10;2.10;;;1.90;;
2756;SDS011;1386;50.862;6.494;2023-06-24T13:33:37;2.27;;;2.07;;
2756;SDS011;1386;50.862;6.494;2023-06-24T13:36:04;2.60;;;2.17;;
2756;SDS011;1386;50.862;6.494;2023-06-24T13:38:33;2.53;;;1.70;;
2756;SDS011;1386;50.862;6.494;2023-06-24T13:41:00;2.67;;;2.03;;
2756;SDS011;1386;50.862;6.494;2023-06-24T13:43:30;2.60;;;1.73;;
2756;SDS011;1386;50.862;6.494;2023-06-24T13:45:59;2.93;;;2.20;;
2756;SDS011;1386;50.862;6.494;2023-06-24T13:48:25;2.83;;;2.07;;
2756;SDS011;1386;50.862;6.494;2023-06-24T13:50:54;3.13;;;1.80;;
2756;SDS011;1386;50.862;6.494;2023-06-24T13:53:32;2.57;;;2.10;;
2756;SDS011;1386;50.862;6.494;2023-06-24T13:56:02;2.43;;;1.80;;
2756;SDS011;1386;50.862;6.494;2023-06-24T13:58:35;2.47;;;1.90;;
2756;SDS011;1386;50.862;6.494;2023-06-24T14:01:03;2.80;;;2.10;;
2756;SDS011;1386;50.862;6.494;2023-06-24T14:03:30;2.30;;;1.90;;
2756;SDS011;1386;50.862;6.494;2023-06-24T14:05:56;2.90;;;2.23;;
2756;SDS011;1386;50.862;6.494;2023-06-24T14:08:26;2.57;;;2.13;;
2756;SDS011;1386;50.862;6.494;2023-06-24T14:10:53;3.60;;;1.93;;
2756;SDS011;1386;50.862;6.494;2023-06-24T14:13:20;3.40;;;2.07;;
2756;SDS011;1386;50.862;6.494;2023-06-24T14:15:50;2.60;;;2.37;;
2756;SDS011;1386;50.862;6.494;2023-06-24T14:18:21;3.30;;;2.10;;
2756;SDS011;1386;50.862;6.494;2023-06-24T14:20:48;2.63;;;2.40;;
2756;SDS011;1386;50.862;6.494;2023-06-24T14:23:15;2.50;;;2.10;;
2756;SDS011;1386;50.862;6.494;2023-06-24T14:25:42;2.60;;;1.77;;
2756;SDS011;1386;50.862;6.494;2023-06-24T14:28:09;2.50;;;1.97;;
2756;SDS011;1386;50.862;6.494;2023-06-24T14:30:36;3.00;;;2.60;;
2756;SDS011;1386;50.862;6.494;2023-06-24T14:33:09;3.67;;;2.30;;
2756;SDS011;1386;50.862;6.494;2023-06-24T14:35:43;3.00;;;1.90;;
2756;SDS011;1386;50.862;6.494;2023-06-24T14:38:10;2.70;;;1.80;;
2756;SDS011;1386;50.862;6.494;2023-06-24T14:40:49;3.30;;;1.80;;
2756;SDS011;1386;50.862;6.494;2023-06-24T14:43:40;2.13;;;1.90;;
2756;SDS011;1386;50.862;6.494;2023-06-24T14:46:10;2.17;;;1.63;;
2756;SDS011;1386;50.862;6.494;2023-06-24T14:48:37;2.47;;;1.80;;
2756;SDS011;1386;50.862;6.494;2023-06-24T14:51:05;2.80;;;1.77;;
2756;SDS011;1386;50.862;6.494;2023-06-24T14:53:32;2.33;;;1.90;;
2756;SDS011;1386;50.862;6.494;2023-06-24T14:55:59;2.10;;;1.90;;
2756;SDS011;1386;50.862;6.494;2023-06-24T14:58:26;2.83;;;2.10;;
2756;SDS011;1386;50.862;6.494;2023-06-24T15:00:53;2.67;;;2.10;;
2756;SDS011;1386;50.862;6.494;2023-06-24T15:03:20;2.30;;;1.80;;
2756;SDS011;1386;50.862;6.494;2023-06-24T15:05:50;2.73;;;2.17;;
2756;SDS011;1386;50.862;6.494;2023-06-24T15:08:18;2.63;;;2.17;;
2756;SDS011;1386;50.862;6.494;2023-06-24T15:10:45;2.17;;;1.80;;
2756;SDS011;1386;50.862;6.494;2023-06-24T15:13:12;2.50;;;1.93;;
2756;SDS011;1386;50.862;6.494;2023-06-24T15:15:38;2.20;;;1.90;;
2756;SDS011;1386;50.862;6.494;2023-06-24T15:18:05;2.40;;;1.73;;
2756;SDS011;1386;50.862;6.494;2023-06-24T15:20:32;1.93;;;1.57;;
2756;SDS011;1386;50.862;6.494;2023-06-24T15:23:01;2.50;;;1.73;;
2756;SDS011;1386;50.862;6.494;2023-06-24T15:25:30;1.90;;;1.70;;
2756;SDS011;1386;50.862;6.494;2023-06-24T15:27:57;1.93;;;1.63;;
2756;SDS011;1386;50.862;6.494;2023-06-24T15:30:24;2.40;;;1.90;;
2756;SDS011;1386;50.862;6.494;2023-06-24T15:32:52;3.40;;;2.43;;
2756;SDS011;1386;50.862;6.494;2023-06-24T15:35:19;2.20;;;1.70;;
2756;SDS011;1386;50.862;6.494;2023-06-24T15:37:48;2.00;;;1.77;;
2756;SDS011;1386;50.862;6.494;2023-06-24T15:40:17;2.10;;;1.90;;
2756;SDS011;1386;50.862;6.494;2023-06-24T15:42:45;2.93;;;1.67;;
2756;SDS011;1386;50.862;6.494;2023-06-24T15:45:14;2.37;;;1.63;;
2756;SDS011;1386;50.862;6.494;2023-06-24T15:47:40;2.63;;;1.97;;
2756;SDS011;1386;50.862;6.494;2023-06-24T15:50:08;2.40;;;2.10;;
2756;SDS011;1386;50.862;6.494;2023-06-24T15:52:35;2.13;;;1.70;;
2756;SDS011;1386;50.862;6.494;2023-06-24T15:55:02;3.80;;;2.20;;
2756;SDS011;1386;50.862;6.494;2023-06-24T15:57:30;2.97;;;2.30;;
2756;SDS011;1386;50.862;6.494;2023-06-24T16:00:00;4.83;;;2.07;;
2756;SDS011;1386;50.862;6.494;2023-06-24T16:02:27;5.00;;;2.30;;
2756;SDS011;1386;50.862;6.494;2023-06-24T16:04:54;4.60;;;2.57;;
2756;SDS011;1386;50.862;6.494;2023-06-24T16:07:21;6.50;;;1.90;;
2756;SDS011;1386;50.862;6.494;2023-06-24T16:09:48;3.20;;;1.70;;
2756;SDS011;1386;50.862;6.494;2023-06-24T16:12:15;2.50;;;1.70;;
2756;SDS011;1386;50.862;6.494;2023-06-24T16:14:42;3.43;;;2.10;;
2756;SDS011;1386;50.862;6.494;2023-06-24T16:17:10;2.37;;;1.90;;
2756;SDS011;1386;50.862;6.494;2023-06-24T16:19:37;3.23;;;1.90;;
2756;SDS011;1386;50.862;6.494;2023-06-24T16:22:03;3.33;;;1.93;;
2756;SDS011;1386;50.862;6.494;2023-06-24T16:24:30;3.03;;;2.13;;
2756;SDS011;1386;50.862;6.494;2023-06-24T16:26:57;2.30;;;1.90;;
2756;SDS011;1386;50.862;6.494;2023-06-24T16:29:28;2.20;;;1.90;;
2756;SDS011;1386;50.862;6.494;2023-06-24T16:31:55;2.77;;;1.90;;
2756;SDS011;1386;50.862;6.494;2023-06-24T16:34:23;4.03;;;2.00;;
2756;SDS011;1386;50.862;6.494;2023-06-24T16:36:53;1.90;;;1.70;;
2756;SDS011;1386;50.862;6.494;2023-06-24T16:39:20;2.67;;;2.03;;
2756;SDS011;1386;50.862;6.494;2023-06-24T16:41:49;2.60;;;1.80;;
2756;SDS011;1386;50.862;6.494;2023-06-24T16:44:19;2.27;;;1.60;;
2756;SDS011;1386;50.862;6.494;2023-06-24T16:46:47;3.33;;;1.83;;
2756;SDS011;1386;50.862;6.494;2023-06-24T16:49:13;2.30;;;2.00;;
2756;SDS011;1386;50.862;6.494;2023-06-24T16:51:45;2.30;;;1.80;;